createdAt,value
2018-07-14T00:02:19.778Z,8.00
2018-07-14T00:04:48.332Z,9.03
2018-07-14T00:07:16.921Z,7.93
2018-07-14T00:09:45.464Z,7.40
2018-07-14T00:12:14.025Z,8.40
2018-07-14T00:14:42.892Z,8.57
2018-07-14T00:17:11.601Z,9.00
2018-07-14T00:19:40.135Z,8.70
2018-07-14T00:22:08.745Z,8.60
2018-07-14T00:24:37.263Z,9.10
2018-07-14T00:27:05.959Z,9.30
2018-07-14T00:29:34.592Z,10.03
2018-07-14T00:32:03.188Z,9.77
2018-07-14T00:34:31.689Z,9.30
2018-07-14T00:37:00.204Z,9.50
2018-07-14T00:39:28.806Z,9.53
2018-07-14T00:41:57.373Z,9.00
2018-07-14T00:44:25.914Z,9.43
2018-07-14T00:46:54.614Z,9.27
2018-07-14T00:49:23.268Z,9.67
2018-07-14T00:51:51.745Z,9.93
2018-07-14T00:54:20.273Z,9.93
2018-07-14T00:56:48.760Z,9.87
2018-07-14T00:59:17.357Z,9.40
2018-07-14T01:01:45.905Z,10.27
2018-07-14T01:04:14.431Z,9.43
2018-07-14T01:06:43.044Z,10.40
2018-07-14T01:09:11.594Z,9.43
2018-07-14T01:11:40.133Z,11.00
2018-07-14T01:14:09.164Z,9.90
2018-07-14T01:16:38.092Z,9.27
2018-07-14T01:19:06.779Z,10.27
2018-07-14T01:21:35.534Z,9.80
2018-07-14T01:24:04.128Z,10.53
2018-07-14T01:26:32.669Z,9.00
2018-07-14T01:29:01.148Z,11.03
2018-07-14T01:31:29.676Z,9.10
2018-07-14T01:33:58.256Z,9.40
2018-07-14T01:36:26.893Z,9.13
2018-07-14T01:38:55.492Z,9.50
2018-07-14T01:41:24.169Z,9.53
2018-07-14T01:43:52.791Z,9.50
2018-07-14T01:46:21.416Z,9.40
2018-07-14T01:48:49.951Z,10.20
2018-07-14T01:51:18.472Z,10.10
2018-07-14T01:53:47.031Z,9.43
2018-07-14T01:56:15.545Z,10.03
2018-07-14T01:58:44.197Z,9.20
2018-07-14T02:01:12.768Z,8.90
2018-07-14T02:03:41.313Z,8.60
2018-07-14T02:06:09.837Z,9.00
2018-07-14T02:08:38.521Z,8.70
2018-07-14T02:11:07.418Z,9.10
2018-07-14T02:13:35.964Z,8.90
2018-07-14T02:16:04.503Z,8.53
2018-07-14T02:18:33.049Z,8.73
2018-07-14T02:21:01.596Z,9.10
2018-07-14T02:23:30.234Z,9.17
2018-07-14T02:25:58.760Z,8.67
2018-07-14T02:28:27.412Z,9.93
2018-07-14T02:30:55.957Z,10.53
2018-07-14T02:33:24.837Z,10.80
2018-07-14T02:35:53.395Z,10.07
2018-07-14T02:38:21.995Z,11.80
2018-07-14T02:40:50.513Z,10.37
2018-07-14T02:43:19.040Z,10.97
2018-07-14T02:45:47.632Z,11.80
2018-07-14T02:48:16.251Z,12.93
2018-07-14T02:50:45.052Z,13.90
2018-07-14T02:53:13.623Z,13.00
2018-07-14T02:55:42.194Z,12.97
2018-07-14T02:58:10.752Z,13.40
2018-07-14T03:00:39.466Z,11.77
2018-07-14T03:03:08.262Z,13.03
2018-07-14T03:05:36.436Z,15.53
2018-07-14T03:08:05.021Z,13.73
2018-07-14T03:10:33.531Z,13.20
2018-07-14T03:13:02.115Z,12.97
2018-07-14T03:15:30.646Z,13.50
2018-07-14T03:17:59.168Z,13.40
2018-07-14T03:20:27.686Z,12.73
2018-07-14T03:22:56.184Z,11.67
2018-07-14T03:25:24.876Z,13.60
2018-07-14T03:27:53.355Z,13.27
2018-07-14T03:30:21.574Z,12.67
2018-07-14T03:32:50.167Z,12.00
2018-07-14T03:35:18.731Z,13.90
2018-07-14T03:37:47.268Z,12.70
2018-07-14T03:40:15.820Z,12.20
2018-07-14T03:42:44.366Z,10.57
2018-07-14T03:45:13.061Z,12.00
2018-07-14T03:47:41.591Z,12.97
2018-07-14T03:50:10.167Z,12.87
2018-07-14T03:52:38.680Z,11.40
2018-07-14T03:55:07.899Z,13.70
2018-07-14T03:57:36.598Z,13.47
2018-07-14T04:00:05.860Z,14.33
2018-07-14T04:02:34.700Z,12.80
2018-07-14T04:05:03.352Z,10.33
2018-07-14T04:07:31.888Z,10.90
2018-07-14T04:10:00.639Z,11.80
2018-07-14T04:12:29.211Z,11.93
2018-07-14T04:14:57.713Z,12.67
2018-07-14T04:17:26.259Z,13.43
2018-07-14T04:19:54.757Z,12.53
2018-07-14T04:22:23.224Z,13.70
2018-07-14T04:24:51.736Z,10.87
2018-07-14T04:27:20.255Z,14.00
2018-07-14T04:29:48.919Z,11.57
2018-07-14T04:32:17.508Z,12.90
2018-07-14T04:34:46.056Z,11.60
2018-07-14T04:37:14.580Z,15.20
2018-07-14T04:39:43.199Z,11.40
2018-07-14T04:42:11.729Z,11.23
2018-07-14T04:44:40.235Z,12.20
2018-07-14T04:47:08.820Z,12.30
2018-07-14T04:49:37.406Z,13.80
2018-07-14T04:52:06.114Z,13.27
2018-07-14T04:54:34.699Z,13.23
2018-07-14T04:57:03.303Z,12.57
2018-07-14T04:59:31.847Z,12.67
2018-07-14T05:02:00.063Z,11.67
2018-07-14T05:04:28.681Z,10.43
2018-07-14T05:06:57.202Z,13.17
2018-07-14T05:09:25.770Z,12.20
2018-07-14T05:11:54.412Z,10.27
2018-07-14T05:14:22.919Z,11.90
2018-07-14T05:16:51.504Z,11.23
2018-07-14T05:19:20.158Z,12.57
2018-07-14T05:21:48.692Z,11.00
2018-07-14T05:24:17.746Z,10.30
2018-07-14T05:26:46.360Z,11.40
2018-07-14T05:29:14.842Z,11.13
2018-07-14T05:31:43.384Z,12.07
2018-07-14T05:34:11.992Z,10.60
2018-07-14T05:36:40.542Z,11.60
2018-07-14T05:39:09.062Z,12.03
2018-07-14T05:41:37.579Z,10.13
2018-07-14T05:44:06.160Z,11.47
2018-07-14T05:46:34.667Z,12.90
2018-07-14T05:49:03.196Z,12.53
2018-07-14T05:51:31.723Z,12.63
2018-07-14T05:54:00.395Z,11.27
2018-07-14T05:56:28.923Z,11.67
2018-07-14T05:58:57.449Z,12.07
2018-07-14T06:01:26.096Z,11.73
2018-07-14T06:03:54.774Z,11.60
2018-07-14T06:06:23.346Z,9.87
2018-07-14T06:08:52.018Z,11.40
2018-07-14T06:11:20.572Z,10.80
2018-07-14T06:13:49.432Z,11.70
2018-07-14T06:16:18.008Z,11.70
2018-07-14T06:18:46.660Z,13.17
2018-07-14T06:21:15.343Z,9.60
2018-07-14T06:23:43.953Z,12.03
2018-07-14T06:26:12.634Z,12.17
2018-07-14T06:28:41.208Z,12.27
2018-07-14T06:31:09.816Z,12.13
2018-07-14T06:33:38.456Z,10.80
2018-07-14T06:36:07.070Z,11.03
2018-07-14T06:38:35.738Z,11.67
2018-07-14T06:41:04.449Z,10.63
2018-07-14T06:43:33.048Z,11.20
2018-07-14T06:46:01.680Z,10.80
2018-07-14T06:48:30.296Z,10.23
2018-07-14T06:50:59.076Z,10.63
2018-07-14T06:53:27.656Z,10.17
2018-07-14T06:55:56.268Z,10.43
2018-07-14T06:58:24.799Z,8.73
2018-07-14T07:00:53.540Z,8.30
2018-07-14T07:03:22.371Z,7.53
2018-07-14T07:05:50.965Z,8.93
2018-07-14T07:08:19.545Z,9.50
2018-07-14T07:10:48.185Z,7.60
2018-07-14T07:13:16.975Z,8.53
2018-07-14T07:15:45.889Z,9.70
2018-07-14T07:18:14.462Z,8.77
2018-07-14T07:20:43.111Z,9.20
2018-07-14T07:23:11.693Z,7.53
2018-07-14T07:25:40.365Z,9.47
2018-07-14T07:28:08.996Z,8.00
2018-07-14T07:30:37.720Z,8.40
2018-07-14T07:33:06.951Z,9.33
2018-07-14T07:35:35.471Z,8.30
2018-07-14T07:38:04.294Z,8.80
2018-07-14T07:40:32.968Z,8.20
2018-07-14T07:43:01.858Z,7.23
2018-07-14T07:45:30.760Z,9.50
2018-07-14T07:47:59.342Z,9.20
2018-07-14T07:50:27.582Z,9.17
2018-07-14T07:52:56.115Z,8.70
2018-07-14T07:55:24.695Z,9.03
2018-07-14T07:57:53.325Z,8.03
2018-07-14T08:00:21.899Z,9.00
2018-07-14T08:02:51.587Z,8.43
2018-07-14T08:05:20.198Z,7.23
2018-07-14T08:07:48.732Z,7.60
2018-07-14T08:10:17.370Z,8.13
2018-07-14T08:12:45.989Z,8.53
2018-07-14T08:15:14.575Z,8.63
2018-07-14T08:17:43.693Z,9.50
2018-07-14T08:20:12.288Z,8.80
2018-07-14T08:22:40.846Z,7.60
2018-07-14T08:25:09.483Z,8.23
2018-07-14T08:27:38.258Z,8.27
2018-07-14T08:30:06.982Z,10.00
2018-07-14T08:32:35.661Z,9.43
2018-07-14T08:35:04.253Z,10.10
2018-07-14T08:37:32.875Z,9.50
2018-07-14T08:40:01.599Z,8.50
2018-07-14T08:42:30.411Z,9.10
2018-07-14T08:44:58.979Z,8.43
2018-07-14T08:47:27.608Z,8.30
2018-07-14T08:49:56.139Z,8.13
2018-07-14T08:52:24.755Z,7.37
2018-07-14T08:54:53.357Z,7.30
2018-07-14T08:57:21.858Z,7.43
2018-07-14T08:59:50.489Z,7.73
2018-07-14T09:02:19.044Z,8.63
2018-07-14T09:04:47.747Z,8.30
2018-07-14T09:07:16.266Z,7.83
2018-07-14T09:09:44.807Z,7.33
2018-07-14T09:12:13.991Z,8.30
2018-07-14T09:14:42.596Z,9.37
2018-07-14T09:17:11.153Z,9.50
2018-07-14T09:19:40.015Z,9.33
2018-07-14T09:22:09.352Z,7.50
2018-07-14T09:24:38.079Z,8.70
2018-07-14T09:27:06.736Z,8.03
2018-07-14T09:29:35.441Z,7.57
2018-07-14T09:32:04.069Z,8.13
2018-07-14T09:34:32.711Z,8.30
2018-07-14T09:37:01.720Z,7.60
2018-07-14T09:39:30.315Z,7.10
2018-07-14T09:41:59.393Z,6.93
2018-07-14T09:44:28.351Z,6.43
2018-07-14T09:46:57.367Z,7.53
2018-07-14T09:49:26.086Z,7.50
2018-07-14T09:51:54.702Z,6.90
2018-07-14T09:54:23.337Z,7.10
2018-07-14T09:56:52.139Z,6.80
2018-07-14T09:59:20.853Z,6.97
2018-07-14T10:01:49.452Z,5.73
2018-07-14T10:04:18.097Z,6.40
2018-07-14T10:06:46.695Z,6.50
2018-07-14T10:09:15.219Z,5.90
2018-07-14T10:11:43.851Z,7.27
2018-07-14T10:14:12.530Z,5.83
2018-07-14T10:16:41.337Z,5.80
2018-07-14T10:19:10.029Z,5.70
2018-07-14T10:21:38.699Z,6.17
2018-07-14T10:24:07.643Z,5.20
2018-07-14T10:26:36.413Z,4.90
2018-07-14T10:29:05.075Z,5.00
2018-07-14T10:31:33.725Z,5.10
2018-07-14T10:34:02.424Z,5.00
2018-07-14T10:36:30.956Z,5.50
2018-07-14T10:38:59.662Z,5.57
2018-07-14T10:41:28.215Z,6.10
2018-07-14T10:43:56.812Z,4.70
2018-07-14T10:46:25.447Z,6.03
2018-07-14T10:48:54.228Z,5.67
2018-07-14T10:51:22.795Z,4.77
2018-07-14T10:53:51.355Z,5.10
2018-07-14T10:56:19.953Z,5.07
2018-07-14T10:58:48.615Z,4.70
2018-07-14T11:01:17.287Z,5.60
2018-07-14T11:03:45.949Z,4.87
2018-07-14T11:06:14.578Z,5.27
2018-07-14T11:08:43.222Z,4.10
2018-07-14T11:11:12.049Z,5.37
2018-07-14T11:13:40.702Z,4.90
2018-07-14T11:16:09.424Z,4.80
2018-07-14T11:18:37.962Z,4.40
2018-07-14T11:21:06.790Z,4.60
2018-07-14T11:23:35.443Z,5.87
2018-07-14T11:26:04.151Z,4.57
2018-07-14T11:28:32.712Z,4.47
2018-07-14T11:31:01.400Z,4.47
2018-07-14T11:33:29.662Z,4.67
2018-07-14T11:35:58.231Z,5.23
2018-07-14T11:38:27.348Z,4.93
2018-07-14T11:40:56.030Z,4.77
2018-07-14T11:43:24.678Z,4.80
2018-07-14T11:45:53.217Z,4.80
2018-07-14T11:48:22.093Z,5.40
2018-07-14T11:50:50.670Z,4.30
2018-07-14T11:53:19.367Z,4.93
2018-07-14T11:55:47.937Z,4.33
2018-07-14T11:58:16.748Z,4.37
2018-07-14T12:00:45.527Z,4.40
2018-07-14T12:03:14.068Z,5.20
2018-07-14T12:05:42.669Z,5.30
2018-07-14T12:08:11.223Z,4.87
2018-07-14T12:10:39.874Z,4.47
2018-07-14T12:13:08.430Z,4.80
2018-07-14T12:15:36.985Z,4.10
2018-07-14T12:18:05.664Z,4.43
2018-07-14T12:20:34.383Z,4.17
2018-07-14T12:23:02.921Z,4.73
2018-07-14T12:25:31.580Z,3.77
2018-07-14T12:28:00.257Z,4.53
2018-07-14T12:30:29.005Z,3.50
2018-07-14T12:32:57.687Z,4.13
2018-07-14T12:35:26.395Z,4.70
2018-07-14T12:37:55.155Z,4.10
2018-07-14T12:40:23.981Z,4.50
2018-07-14T12:42:52.556Z,4.60
2018-07-14T12:45:21.157Z,4.63
2018-07-14T12:47:49.850Z,4.87
2018-07-14T12:50:18.421Z,4.40
2018-07-14T12:52:47.077Z,4.53
2018-07-14T12:55:15.718Z,4.67
2018-07-14T12:57:44.402Z,4.70
2018-07-14T13:00:13.028Z,4.87
2018-07-14T13:02:41.647Z,4.63
2018-07-14T13:05:10.323Z,4.20
2018-07-14T13:07:38.908Z,4.33
2018-07-14T13:10:08.378Z,3.73
2018-07-14T13:12:37.365Z,4.30
2018-07-14T13:15:06.403Z,4.00
2018-07-14T13:17:35.078Z,4.40
2018-07-14T13:20:03.749Z,3.77
2018-07-14T13:22:32.587Z,4.90
2018-07-14T13:25:01.394Z,4.40
2018-07-14T13:27:30.033Z,4.50
2018-07-14T13:29:58.635Z,4.33
2018-07-14T13:32:27.298Z,4.00
2018-07-14T13:34:55.884Z,3.77
2018-07-14T13:37:24.526Z,3.80
2018-07-14T13:39:53.126Z,4.23
2018-07-14T13:42:21.762Z,4.97
2018-07-14T13:44:50.328Z,4.53
2018-07-14T13:47:19.206Z,4.20
2018-07-14T13:49:47.973Z,4.60
2018-07-14T13:52:16.574Z,4.80
2018-07-14T13:54:45.159Z,4.00
2018-07-14T13:57:13.756Z,5.33
2018-07-14T13:59:42.324Z,4.40
2018-07-14T14:02:10.911Z,3.90
2018-07-14T14:04:39.505Z,4.47
2018-07-14T14:07:08.187Z,3.90
2018-07-14T14:09:36.724Z,4.50
2018-07-14T14:12:05.329Z,4.70
2018-07-14T14:14:33.888Z,3.90
2018-07-14T14:17:02.592Z,4.60
2018-07-14T14:19:31.261Z,4.47
2018-07-14T14:21:59.828Z,4.23
2018-07-14T14:24:28.359Z,4.33
2018-07-14T14:26:57.012Z,4.83
2018-07-14T14:29:25.557Z,4.70
2018-07-14T14:31:54.166Z,4.40
2018-07-14T14:34:22.680Z,4.20
2018-07-14T14:36:51.376Z,4.20
2018-07-14T14:39:20.063Z,4.13
2018-07-14T14:41:48.756Z,4.37
2018-07-14T14:44:17.558Z,3.30
2018-07-14T14:46:46.180Z,3.93
2018-07-14T14:49:14.920Z,3.93
2018-07-14T14:51:43.595Z,4.40
2018-07-14T14:54:12.235Z,3.70
2018-07-14T14:56:40.856Z,4.10
2018-07-14T14:59:09.804Z,4.90
2018-07-14T15:01:38.596Z,4.10
2018-07-14T15:04:07.420Z,4.23
2018-07-14T15:06:36.053Z,4.50
2018-07-14T15:09:05.672Z,4.80
2018-07-14T15:11:34.290Z,4.47
2018-07-14T15:14:03.188Z,4.20
2018-07-14T15:16:31.965Z,4.87
2018-07-14T15:19:00.573Z,4.90
2018-07-14T15:21:29.248Z,4.10
2018-07-14T15:23:57.934Z,4.50
2018-07-14T15:26:26.503Z,4.50
2018-07-14T15:28:55.096Z,4.80
2018-07-14T15:31:24.086Z,5.40
2018-07-14T15:33:52.789Z,4.43
2018-07-14T15:36:21.416Z,4.67
2018-07-14T15:38:49.984Z,4.43
2018-07-14T15:41:18.555Z,4.73
2018-07-14T15:43:47.223Z,4.60
2018-07-14T15:46:15.813Z,4.93
2018-07-14T15:48:44.515Z,4.80
2018-07-14T15:51:13.083Z,4.70
2018-07-14T15:53:41.627Z,5.50
2018-07-14T15:56:10.299Z,4.40
2018-07-14T15:58:39.194Z,4.40
2018-07-14T16:01:07.887Z,4.60
2018-07-14T16:03:36.506Z,5.40
2018-07-14T16:06:05.188Z,4.27
2018-07-14T16:08:34.038Z,5.90
2018-07-14T16:11:02.819Z,5.67
2018-07-14T16:13:31.554Z,4.73
2018-07-14T16:16:00.162Z,5.60
2018-07-14T16:18:28.994Z,5.00
2018-07-14T16:20:58.065Z,4.50
2018-07-14T16:23:26.436Z,4.90
2018-07-14T16:25:55.157Z,4.97
2018-07-14T16:28:23.729Z,4.90
2018-07-14T16:30:52.294Z,4.47
2018-07-14T16:33:21.266Z,5.07
2018-07-14T16:35:50.064Z,5.13
2018-07-14T16:38:18.835Z,6.07
2018-07-14T16:40:47.287Z,6.30
2018-07-14T16:43:16.000Z,5.33
2018-07-14T16:45:44.558Z,5.10
2018-07-14T16:48:13.347Z,5.10
2018-07-14T16:50:42.014Z,5.00
2018-07-14T16:53:10.691Z,4.93
2018-07-14T16:55:39.451Z,4.83
2018-07-14T16:58:08.240Z,4.60
2018-07-14T17:00:37.000Z,5.60
2018-07-14T17:03:05.670Z,4.60
2018-07-14T17:05:34.356Z,4.27
2018-07-14T17:08:03.074Z,4.87
2018-07-14T17:10:31.630Z,4.90
2018-07-14T17:13:00.265Z,4.80
2018-07-14T17:15:28.766Z,4.90
2018-07-14T17:17:57.354Z,5.33
2018-07-14T17:20:25.960Z,5.00
2018-07-14T17:22:54.568Z,5.60
2018-07-14T17:25:22.775Z,4.73
2018-07-14T17:27:51.394Z,5.97
2018-07-14T17:30:20.081Z,5.17
2018-07-14T17:32:49.014Z,5.80
2018-07-14T17:35:17.680Z,5.50
2018-07-14T17:37:46.348Z,5.77
2018-07-14T17:40:14.978Z,5.50
2018-07-14T17:42:43.735Z,5.13
2018-07-14T17:45:12.512Z,6.43
2018-07-14T17:47:41.180Z,6.77
2018-07-14T17:50:09.787Z,6.40
2018-07-14T17:52:38.344Z,5.90
2018-07-14T17:55:07.037Z,5.40
2018-07-14T17:57:36.454Z,6.17
2018-07-14T18:00:05.243Z,5.87
2018-07-14T18:02:33.946Z,4.70
2018-07-14T18:05:02.712Z,5.23
2018-07-14T18:07:31.318Z,6.07
2018-07-14T18:09:59.967Z,6.47
2018-07-14T18:12:28.660Z,6.20
2018-07-14T18:14:57.256Z,6.40
2018-07-14T18:17:25.910Z,6.27
2018-07-14T18:19:54.474Z,5.87
2018-07-14T18:22:23.136Z,5.40
2018-07-14T18:24:51.763Z,6.07
2018-07-14T18:27:20.381Z,5.90
2018-07-14T18:29:49.024Z,4.97
2018-07-14T18:32:17.711Z,6.57
2018-07-14T18:34:46.311Z,6.40
2018-07-14T18:37:15.041Z,6.10
2018-07-14T18:39:43.582Z,6.70
2018-07-14T18:42:12.620Z,6.70
2018-07-14T18:44:41.360Z,8.23
2018-07-14T18:47:09.962Z,8.33
2018-07-14T18:49:38.141Z,8.10
2018-07-14T18:52:07.344Z,8.23
2018-07-14T18:54:36.201Z,7.87
2018-07-14T18:57:05.078Z,7.00
2018-07-14T18:59:33.908Z,7.50
2018-07-14T19:02:02.622Z,7.43
2018-07-14T19:04:31.296Z,6.63
2018-07-14T19:06:59.990Z,7.37
2018-07-14T19:09:28.855Z,6.90
2018-07-14T19:11:57.491Z,6.60
2018-07-14T19:14:26.073Z,6.20
2018-07-14T19:16:54.751Z,6.00
2018-07-14T19:19:23.455Z,6.90
2018-07-14T19:21:51.718Z,7.30
2018-07-14T19:24:20.479Z,7.30
2018-07-14T19:26:49.115Z,7.30
2018-07-14T19:29:17.845Z,6.37
2018-07-14T19:31:46.558Z,6.70
2018-07-14T19:34:15.200Z,7.37
2018-07-14T19:36:43.893Z,7.30
2018-07-14T19:39:12.547Z,6.90
2018-07-14T19:41:41.101Z,6.83
2018-07-14T19:44:09.693Z,7.60
2018-07-14T19:46:38.375Z,7.27
2018-07-14T19:49:07.234Z,6.93
2018-07-14T19:51:36.090Z,6.90
2018-07-14T19:54:05.015Z,6.77
2018-07-14T19:56:33.728Z,6.70
2018-07-14T19:59:02.487Z,6.53
2018-07-14T20:01:31.053Z,7.53
2018-07-14T20:03:59.710Z,6.90
2018-07-14T20:06:28.520Z,8.20
2018-07-14T20:08:57.088Z,7.43
2018-07-14T20:11:25.760Z,6.87
2018-07-14T20:13:54.288Z,6.60
2018-07-14T20:16:22.902Z,7.80
2018-07-14T20:18:51.606Z,8.37
2018-07-14T20:21:20.380Z,8.80
2018-07-14T20:23:48.992Z,9.97
2018-07-14T20:26:17.790Z,8.40
2018-07-14T20:28:46.403Z,8.00
2018-07-14T20:31:15.036Z,8.80
2018-07-14T20:33:43.543Z,8.67
2018-07-14T20:36:12.245Z,8.70
2018-07-14T20:38:40.775Z,8.23
2018-07-14T20:41:09.556Z,7.90
2018-07-14T20:43:38.372Z,9.43
2018-07-14T20:46:07.280Z,9.77
2018-07-14T20:48:35.981Z,10.10
2018-07-14T20:51:05.097Z,8.80
2018-07-14T20:53:33.802Z,9.07
2018-07-14T20:56:02.429Z,9.40
2018-07-14T20:58:31.234Z,8.73
2018-07-14T21:00:59.907Z,10.27
2018-07-14T21:03:28.900Z,10.40
2018-07-14T21:05:57.661Z,9.67
2018-07-14T21:08:26.331Z,9.33
2018-07-14T21:10:55.046Z,10.10
2018-07-14T21:13:23.664Z,11.50
2018-07-14T21:15:52.321Z,10.30
2018-07-14T21:18:21.216Z,10.40
2018-07-14T21:20:50.138Z,10.40
2018-07-14T21:23:18.719Z,10.10
2018-07-14T21:25:47.451Z,9.83
2018-07-14T21:28:16.306Z,10.93
2018-07-14T21:30:45.132Z,10.17
2018-07-14T21:33:13.902Z,10.23
2018-07-14T21:35:42.193Z,10.70
2018-07-14T21:38:10.725Z,12.03
2018-07-14T21:40:39.357Z,10.60
2018-07-14T21:43:08.110Z,11.40
2018-07-14T21:45:37.001Z,11.50
2018-07-14T21:48:05.895Z,11.10
2018-07-14T21:50:34.835Z,11.90
2018-07-14T21:53:03.731Z,13.53
2018-07-14T21:55:32.487Z,13.40
2018-07-14T21:58:01.296Z,13.20
2018-07-14T22:00:35.284Z,13.10
2018-07-14T22:03:05.815Z,12.47
2018-07-14T22:05:34.695Z,12.80
2018-07-14T22:08:03.362Z,13.10
2018-07-14T22:10:32.065Z,12.90
2018-07-14T22:13:00.743Z,14.10
2018-07-14T22:15:29.037Z,13.00
2018-07-14T22:17:57.652Z,13.30
2018-07-14T22:20:26.746Z,14.00
2018-07-14T22:22:55.344Z,14.43
2018-07-14T22:25:24.080Z,15.40
2018-07-14T22:27:52.782Z,16.13
2018-07-14T22:30:21.303Z,15.63
2018-07-14T22:32:50.165Z,15.27
2018-07-14T22:35:18.737Z,17.37
2018-07-14T22:37:47.396Z,15.70
2018-07-14T22:40:16.064Z,14.50
2018-07-14T22:42:44.700Z,15.80
2018-07-14T22:45:13.343Z,15.03
2018-07-14T22:47:41.978Z,16.50
2018-07-14T22:50:10.780Z,15.30
2018-07-14T22:52:39.700Z,15.30
2018-07-14T22:55:08.510Z,15.63
2018-07-14T22:57:37.152Z,15.47
2018-07-14T23:00:07.260Z,15.77
2018-07-14T23:02:35.904Z,14.37
2018-07-14T23:05:04.800Z,14.60
2018-07-14T23:07:33.597Z,15.07
2018-07-14T23:10:02.345Z,14.93
2018-07-14T23:12:30.966Z,14.60
2018-07-14T23:14:59.698Z,14.43
2018-07-14T23:17:28.219Z,13.60
2018-07-14T23:19:57.112Z,13.27
2018-07-14T23:22:25.592Z,14.40
2018-07-14T23:24:54.164Z,13.67
2018-07-14T23:27:22.756Z,13.37
2018-07-14T23:29:51.279Z,13.30
2018-07-14T23:32:19.847Z,14.20
2018-07-14T23:34:48.451Z,14.20
2018-07-14T23:37:17.255Z,14.63
2018-07-14T23:39:47.264Z,12.13
2018-07-14T23:42:15.913Z,13.77
2018-07-14T23:44:44.660Z,12.67
2018-07-14T23:47:13.317Z,13.77
2018-07-14T23:49:41.587Z,12.70
2018-07-14T23:52:10.224Z,13.60
2018-07-14T23:54:38.810Z,14.17
2018-07-14T23:57:07.918Z,14.60
2018-07-14T23:59:36.663Z,14.93
